Terminal Aerodrome Forecast
Issued by NWS

Home | Current Version | Previous Version | Text Only | Print | Product List | Glossary On
Versions: 1 2 3 4 5 6 7 8 9 10 11 12 13 14 15 16 17 18 19 20 21 22 23 24 25
000
FTUS43 KDVN 281154
TAFCID
TAF
KCID 281154Z 2812/2912 20003KT P6SM BKN200
     FM281300 19008KT 6SM SHRA VCTS BKN060CB
     FM281700 18014KT P6SM VCTS BKN035CB
     FM282000 19014G20KT 2SM TSRA BKN025CB
     FM290000 31008KT P6SM SCT025 BKN100=

USA.gov is the U.S. government's official web portal to all federal, state and local government web resources and services.